Time;durP1;ratioP1;P1;durP2;ratioP2;P2;SDS_P1;SDS_P2;PMS_P1;PMS_P2;Temp;Humidity;BMP_temperature;BMP_pressure;BME280_temperature;BME280_humidity;BME280_pressure;Samples;Min_cycle;Max_cycle;Signal;HPM_P1;HPM_P2
2022/09/02 00:00:39;;;;;;;6.23;1.20;;;;;;;-145.18;100.00;47234.72;4991178;28;20023;-71
2022/09/02 00:03:05;;;;;;;5.90;1.10;;;;;;;-145.18;100.00;47203.47;4991236;28;20130;-71
2022/09/02 00:05:31;;;;;;;4.97;0.90;;;;;;;-145.18;100.00;47209.31;4991801;28;20105;-72
2022/09/02 00:07:56;;;;;;;1.60;1.03;;;;;;;-145.18;100.00;47197.59;4990892;28;20566;-72
2022/09/02 00:10:22;;;;;;;4.20;1.10;;;;;;;-145.18;100.00;47221.03;4974002;28;20035;-72
2022/09/02 00:12:47;;;;;;;4.37;1.30;;;;;;;-145.18;100.00;47203.47;4991014;28;20053;-71
2022/09/02 00:15:13;;;;;;;4.73;1.33;;;;;;;-145.18;100.00;47199.56;4991486;28;20113;-72
2022/09/02 00:17:38;;;;;;;3.60;0.90;;;;;;;-145.18;100.00;47199.56;4990926;28;20031;-71
2022/09/02 00:20:04;;;;;;;4.00;1.60;;;;;;;-145.18;100.00;47209.31;4991442;28;20030;-71
2022/09/02 00:22:29;;;;;;;4.97;0.90;;;;;;;-145.18;100.00;47199.56;4991190;28;20054;-72
2022/09/02 00:24:55;;;;;;;3.70;1.10;;;;;;;-145.18;100.00;47187.84;4973876;28;20110;-72
2022/09/02 00:27:20;;;;;;;3.00;1.03;;;;;;;-145.18;100.00;47211.28;4991036;28;20026;-71
2022/09/02 00:29:45;;;;;;;3.80;0.87;;;;;;;-145.18;100.00;47207.38;4991149;28;20064;-71
2022/09/02 00:32:11;;;;;;;5.00;1.57;;;;;;;-145.18;100.00;47199.56;4991144;28;20080;-72
2022/09/02 00:34:36;;;;;;;1.77;1.10;;;;;;;-145.18;100.00;47195.66;4990752;28;20042;-72
2022/09/02 00:37:01;;;;;;;3.33;1.10;;;;;;;-145.18;100.00;47203.47;4990879;28;20137;-72
2022/09/02 00:39:27;;;;;;;3.77;1.00;;;;;;;-145.18;100.00;47232.75;4991449;28;20165;-72
2022/09/02 00:41:52;;;;;;;6.13;1.10;;;;;;;-145.18;100.00;47217.13;4973472;28;20069;-72
2022/09/02 00:44:19;;;;;;;6.10;1.40;;;;;;;-145.18;100.00;47207.38;4991503;28;20100;-72
2022/09/02 00:46:45;;;;;;;4.73;1.00;;;;;;;-145.18;100.00;47215.19;4990750;28;20776;-72
2022/09/02 00:49:24;;;;;;;7.83;1.37;;;;;;;-145.18;100.00;47234.72;4990882;28;20176;-72
2022/09/02 00:52:29;;;;;;;2.37;1.10;;;;;;;-145.18;100.00;47230.81;4990668;28;20034;-72
2022/09/02 00:55:04;;;;;;;4.60;1.40;;;;;;;-145.18;100.00;47232.75;4989908;28;20491;-72
2022/09/02 00:57:38;;;;;;;6.57;1.63;;;;;;;-145.18;100.00;47242.53;4990584;28;20046;-72
2022/09/02 01:00:11;;;;;;;5.00;1.17;;;;;;;-145.18;100.00;47238.63;4991316;28;20475;-72
2022/09/02 01:02:39;;;;;;;3.10;1.10;;;;;;;-145.18;100.00;47238.63;4993523;28;20084;-72
2022/09/02 01:05:09;;;;;;;6.93;1.27;;;;;;;-145.18;100.00;47250.34;4994754;28;20057;-72
2022/09/02 01:07:37;;;;;;;7.90;1.37;;;;;;;-145.18;100.00;47283.56;4993967;28;20129;-72
2022/09/02 01:10:05;;;;;;;6.83;1.23;;;;;;;-145.18;100.00;47246.44;4994705;28;20475;-72
2022/09/02 01:12:31;;;;;;;4.07;1.40;;;;;;;-145.18;100.00;47283.56;4994099;28;20418;-72
2022/09/02 01:14:57;;;;;;;6.50;1.20;;;;;;;-145.18;100.00;47297.22;4994375;28;20035;-72
2022/09/02 01:17:24;;;;;;;9.70;1.30;;;;;;;-145.18;100.00;47289.41;4994350;28;20037;-72
2022/09/02 01:19:54;;;;;;;5.73;1.07;;;;;;;-145.18;100.00;47295.28;4993908;28;20034;-72
2022/09/02 01:22:28;;;;;;;2.77;1.10;;;;;;;-145.18;100.00;47291.38;4994281;28;20026;-72
2022/09/02 01:24:58;;;;;;;6.03;1.40;;;;;;;-145.18;100.00;47303.09;4994442;28;20138;-72
2022/09/02 01:27:24;;;;;;;5.33;1.20;;;;;;;-145.18;100.00;47301.16;4993869;28;20070;-72
2022/09/02 01:29:54;;;;;;;7.07;1.10;;;;;;;-145.18;100.00;47303.09;4994073;28;20118;-71
2022/09/02 01:32:21;;;;;;;5.67;1.30;;;;;;;-145.18;100.00;47289.41;4993620;28;20030;-72
2022/09/02 01:34:47;;;;;;;4.67;1.10;;;;;;;-145.18;100.00;47269.88;4994067;28;20026;-72
2022/09/02 01:37:13;;;;;;;5.43;1.20;;;;;;;-145.18;100.00;47283.56;4993727;28;20031;-72
2022/09/02 01:39:39;;;;;;;4.63;1.33;;;;;;;-145.18;100.00;47242.53;4994025;28;20038;-72
2022/09/02 01:42:04;;;;;;;2.33;1.27;;;;;;;-145.18;100.00;47242.53;4993551;28;20038;-72
2022/09/02 01:44:31;;;;;;;3.33;1.17;;;;;;;-145.18;100.00;47267.94;4994141;28;20030;-72
2022/09/02 01:46:56;;;;;;;3.33;1.27;;;;;;;-145.18;100.00;47281.59;4993373;28;20117;-72
2022/09/02 01:49:22;;;;;;;4.50;1.20;;;;;;;-145.18;100.00;47277.69;4993880;28;20125;-72
2022/09/02 01:51:48;;;;;;;4.10;1.17;;;;;;;-145.18;100.00;47273.78;4993283;28;20530;-72
2022/09/02 01:54:13;;;;;;;5.37;1.67;;;;;;;-145.18;100.00;47273.78;4993761;28;20054;-72
2022/09/02 01:56:39;;;;;;;4.40;1.23;;;;;;;-145.18;100.00;47279.66;4993237;28;20464;-72
2022/09/02 01:59:06;;;;;;;2.63;1.10;;;;;;;-145.18;100.00;47265.97;4993446;28;20026;-72
2022/09/02 02:04:00;;;;;;;3.67;1.20;;;;;;;-145.18;100.00;47211.28;4975511;23;20080;-71
2022/09/02 02:06:26;;;;;;;4.33;1.17;;;;;;;-145.18;100.00;47172.19;4965294;28;20123;-72
2022/09/02 02:08:52;;;;;;;3.63;1.30;;;;;;;-145.18;100.00;47133.13;4973290;28;20475;-72
2022/09/02 02:11:22;;;;;;;4.00;1.67;;;;;;;-145.18;100.00;47101.88;4973715;28;20030;-72
2022/09/02 02:13:48;;;;;;;6.00;1.20;;;;;;;-145.18;100.00;46982.72;4972253;28;20034;-72
2022/09/02 02:16:13;;;;;;;4.40;1.90;;;;;;;-145.18;100.00;46908.47;4973384;28;20403;-72
2022/09/02 02:18:39;;;;;;;4.00;1.30;;;;;;;-145.18;100.00;46885.03;4973570;28;20030;-72
2022/09/02 02:21:04;;;;;;;2.73;1.20;;;;;;;-145.18;100.00;46855.72;4972622;28;20039;-71
2022/09/02 02:23:30;;;;;;;3.67;1.20;;;;;;;-145.18;100.00;46871.38;4973475;28;20035;-72
2022/09/02 02:25:55;;;;;;;5.07;1.43;;;;;;;-145.18;100.00;46789.31;4973386;28;20034;-71
2022/09/02 02:28:21;;;;;;;3.57;1.10;;;;;;;-145.18;100.00;46859.63;4972925;28;20114;-71
2022/09/02 02:30:46;;;;;;;2.70;1.43;;;;;;;-145.18;100.00;46879.19;4973574;28;20058;-71
2022/09/02 02:33:12;;;;;;;3.57;1.07;;;;;;;-145.18;100.00;47047.19;4972842;28;20038;-71
2022/09/02 02:35:38;;;;;;;3.03;1.30;;;;;;;-145.18;100.00;47133.13;4973251;28;20105;-71
2022/09/02 02:38:04;;;;;;;3.10;1.30;;;;;;;-145.18;100.00;47080.38;4972935;28;20038;-71
2022/09/02 02:40:30;;;;;;;3.23;1.23;;;;;;;-145.18;100.00;47107.72;4973572;28;20035;-71
2022/09/02 02:42:56;;;;;;;2.03;1.00;;;;;;;-145.18;100.00;47119.47;4972515;28;20553;-71
2022/09/02 02:45:22;;;;;;;9.77;1.20;;;;;;;-145.18;100.00;47064.75;4968514;28;20031;-71
2022/09/02 02:47:47;;;;;;;5.83;1.50;;;;;;;-145.18;100.00;47103.81;4973005;28;20034;-71
2022/09/02 02:50:16;;;;;;;3.63;1.40;;;;;;;-145.18;100.00;47142.91;4955138;28;20058;-71
2022/09/02 02:52:42;;;;;;;4.67;1.40;;;;;;;-145.18;100.00;47140.94;4968427;28;20387;-71
2022/09/02 02:55:09;;;;;;;2.57;1.17;;;;;;;-145.18;100.00;47051.09;4969465;28;20453;-72
2022/09/02 02:57:37;;;;;;;5.17;1.37;;;;;;;-145.18;100.00;47049.13;4971489;28;20027;-71
2022/09/02 03:00:19;;;;;;;3.80;1.30;;;;;;;-145.18;100.00;46976.84;4970700;28;20391;-72
2022/09/02 03:03:28;;;;;;;1.67;1.13;;;;;;;-145.18;100.00;46933.88;4972452;28;20105;-71
2022/09/02 03:07:18;;;;;;;7.53;1.90;;;;;;;-145.18;100.00;46869.41;4961833;28;20113;-71
2022/09/02 03:11:09;;;;;;;5.60;1.30;;;;;;;-145.18;100.00;46857.69;4912683;29;20088;-71
2022/09/02 03:14:59;;;;;;;5.07;1.43;;;;;;;-145.18;100.00;46816.66;4908636;29;20028;-71
2022/09/02 03:18:50;;;;;;;7.13;1.10;;;;;;;-145.18;100.00;46801.03;4908875;29;20083;-71
2022/09/02 03:22:39;;;;;;;3.50;1.10;;;;;;;-145.18;100.00;46818.63;4912623;29;20382;-71
2022/09/02 03:26:00;;;;;;;;;;;;;;;-145.18;100.00;46767.84;4912392;29;20051;-70
2022/09/02 03:29:56;;;;;;;7.17;1.50;;;;;;;-145.18;100.00;46738.53;4912592;29;19923;-70
2022/09/02 03:33:46;;;;;;;7.80;1.67;;;;;;;-145.18;100.00;46730.72;4912216;29;20059;-71
2022/09/02 03:37:36;;;;;;;4.90;1.70;;;;;;;-145.18;100.00;46724.84;4912570;29;20079;-71
2022/09/02 03:41:26;;;;;;;5.50;1.40;;;;;;;-145.18;100.00;46699.47;4911292;29;20588;-71
2022/09/02 03:45:15;;;;;;;3.83;1.77;;;;;;;-145.18;100.00;46679.94;4892841;29;20163;-71
2022/09/02 03:52:38;;;;;;;2.77;1.20;;;;;;;-145.18;100.00;46658.44;4893337;29;20047;-70
2022/09/02 03:56:21;;;;;;;4.27;1.40;;;;;;;-145.18;100.00;46666.25;4893214;29;20119;-71
2022/09/02 04:00:04;;;;;;;5.53;1.70;;;;;;;-145.18;100.00;46646.72;4891623;29;20051;-71
